sensor_id;sensor_type;location;lat;lon;timestamp;pressure;altitude;pressure_sealevel;temperature;humidity
73341;BME280;61578;52.002;5.468;2023-05-27T00:00:12;102935.72;;;10.92;68.06
73341;BME280;61578;52.002;5.468;2023-05-27T00:00:44;102938.31;;;10.94;68.32
73341;BME280;61578;52.002;5.468;2023-05-27T00:01:17;102933.00;;;10.94;68.51
73341;BME280;61578;52.002;5.468;2023-05-27T00:01:48;102928.56;;;10.94;68.67
73341;BME280;61578;52.002;5.468;2023-05-27T00:02:19;102942.75;;;10.93;68.21
73341;BME280;61578;52.002;5.468;2023-05-27T00:02:49;102943.72;;;10.91;67.98
73341;BME280;61578;52.002;5.468;2023-05-27T00:03:20;102929.47;;;10.93;67.80
73341;BME280;61578;52.002;5.468;2023-05-27T00:03:51;102924.81;;;11.00;67.36
73341;BME280;61578;52.002;5.468;2023-05-27T00:04:33;102924.13;;;10.95;67.23
73341;BME280;61578;52.002;5.468;2023-05-27T00:05:04;102938.28;;;10.95;68.18
73341;BME280;61578;52.002;5.468;2023-05-27T00:05:36;102930.44;;;10.91;67.89
73341;BME280;61578;52.002;5.468;2023-05-27T00:06:06;102937.69;;;10.86;67.57
73341;BME280;61578;52.002;5.468;2023-05-27T00:06:37;102922.88;;;10.79;68.07
73341;BME280;61578;52.002;5.468;2023-05-27T00:07:08;102941.22;;;10.86;68.30
73341;BME280;61578;52.002;5.468;2023-05-27T00:07:39;102932.50;;;10.81;68.34
73341;BME280;61578;52.002;5.468;2023-05-27T00:08:10;102934.34;;;10.79;68.31
73341;BME280;61578;52.002;5.468;2023-05-27T00:08:40;102933.56;;;10.77;67.79
73341;BME280;61578;52.002;5.468;2023-05-27T00:09:11;102933.56;;;10.77;68.34
73341;BME280;61578;52.002;5.468;2023-05-27T00:09:42;102933.69;;;10.73;68.59
73341;BME280;61578;52.002;5.468;2023-05-27T00:10:12;102928.28;;;10.76;68.52
73341;BME280;61578;52.002;5.468;2023-05-27T00:10:43;102938.09;;;10.74;68.28
73341;BME280;61578;52.002;5.468;2023-05-27T00:11:16;102925.56;;;10.77;68.30
73341;BME280;61578;52.002;5.468;2023-05-27T00:11:47;102922.47;;;10.91;67.61
73341;BME280;61578;52.002;5.468;2023-05-27T00:12:20;102924.91;;;10.98;68.01
73341;BME280;61578;52.002;5.468;2023-05-27T00:12:53;102932.69;;;11.03;67.29
73341;BME280;61578;52.002;5.468;2023-05-27T00:13:24;102931.75;;;11.05;67.13
73341;BME280;61578;52.002;5.468;2023-05-27T00:13:55;102925.56;;;11.05;67.40
73341;BME280;61578;52.002;5.468;2023-05-27T00:14:25;102934.34;;;11.07;67.18
73341;BME280;61578;52.002;5.468;2023-05-27T00:14:56;102936.09;;;11.08;67.80
73341;BME280;61578;52.002;5.468;2023-05-27T00:15:27;102927.25;;;11.07;67.14
73341;BME280;61578;52.002;5.468;2023-05-27T00:15:58;102939.53;;;11.10;67.74
73341;BME280;61578;52.002;5.468;2023-05-27T00:16:28;102934.22;;;11.10;67.58
73341;BME280;61578;52.002;5.468;2023-05-27T00:16:59;102931.66;;;11.09;67.79
73341;BME280;61578;52.002;5.468;2023-05-27T00:17:31;102929.88;;;11.09;67.99
73341;BME280;61578;52.002;5.468;2023-05-27T00:18:03;102933.44;;;11.08;67.57
73341;BME280;61578;52.002;5.468;2023-05-27T00:18:34;102935.19;;;11.09;67.76
73341;BME280;61578;52.002;5.468;2023-05-27T00:19:06;102931.69;;;11.07;67.24
73341;BME280;61578;52.002;5.468;2023-05-27T00:19:36;102930.78;;;11.08;66.96
73341;BME280;61578;52.002;5.468;2023-05-27T00:20:08;102922.03;;;11.04;67.55
73341;BME280;61578;52.002;5.468;2023-05-27T00:20:40;102932.56;;;11.07;67.25
73341;BME280;61578;52.002;5.468;2023-05-27T00:21:11;102923.75;;;11.05;67.48
73341;BME280;61578;52.002;5.468;2023-05-27T00:21:42;102933.44;;;11.08;67.16
73341;BME280;61578;52.002;5.468;2023-05-27T00:22:13;102925.56;;;11.05;67.52
73341;BME280;61578;52.002;5.468;2023-05-27T00:22:45;102936.19;;;11.05;67.17
73341;BME280;61578;52.002;5.468;2023-05-27T00:23:17;102925.75;;;10.99;67.17
73341;BME280;61578;52.002;5.468;2023-05-27T00:23:51;102934.53;;;11.01;67.50
73341;BME280;61578;52.002;5.468;2023-05-27T00:24:24;102913.56;;;10.92;68.36
73341;BME280;61578;52.002;5.468;2023-05-27T00:24:58;102925.81;;;10.97;67.84
73341;BME280;61578;52.002;5.468;2023-05-27T00:25:29;102920.66;;;10.91;68.09
73341;BME280;61578;52.002;5.468;2023-05-27T00:26:00;102928.44;;;10.99;68.12
73341;BME280;61578;52.002;5.468;2023-05-27T00:26:31;102929.34;;;10.98;68.10
73341;BME280;61578;52.002;5.468;2023-05-27T00:27:01;102929.44;;;10.95;67.60
73341;BME280;61578;52.002;5.468;2023-05-27T00:27:33;102924.06;;;10.96;67.30
73341;BME280;61578;52.002;5.468;2023-05-27T00:28:04;102928.56;;;10.94;67.38
73341;BME280;61578;52.002;5.468;2023-05-27T00:28:34;102923.28;;;10.93;67.69
73341;BME280;61578;52.002;5.468;2023-05-27T00:29:05;102925.13;;;10.91;67.35
73341;BME280;61578;52.002;5.468;2023-05-27T00:29:36;102926.91;;;10.90;67.38
73341;BME280;61578;52.002;5.468;2023-05-27T00:30:09;102933.09;;;10.91;67.54
73341;BME280;61578;52.002;5.468;2023-05-27T00:30:40;102933.97;;;10.91;67.62
73341;BME280;61578;52.002;5.468;2023-05-27T00:31:11;102928.66;;;10.91;68.38
73341;BME280;61578;52.002;5.468;2023-05-27T00:31:44;102929.53;;;10.92;67.62
73341;BME280;61578;52.002;5.468;2023-05-27T00:32:18;102931.34;;;10.90;68.16
73341;BME280;61578;52.002;5.468;2023-05-27T00:32:49;102928.69;;;10.90;67.80
73341;BME280;61578;52.002;5.468;2023-05-27T00:33:20;102929.63;;;10.89;67.83
73341;BME280;61578;52.002;5.468;2023-05-27T00:33:51;102927.81;;;10.89;68.16
73341;BME280;61578;52.002;5.468;2023-05-27T00:34:22;102926.03;;;10.90;68.21
73341;BME280;61578;52.002;5.468;2023-05-27T00:34:53;102924.38;;;10.87;67.78
73341;BME280;61578;52.002;5.468;2023-05-27T00:35:23;102925.25;;;10.88;68.46
73341;BME280;61578;52.002;5.468;2023-05-27T00:35:54;102923.53;;;10.85;68.15
73341;BME280;61578;52.002;5.468;2023-05-27T00:36:25;102924.50;;;10.83;67.92
73341;BME280;61578;52.002;5.468;2023-05-27T00:36:56;102918.31;;;10.82;68.00
73341;BME280;61578;52.002;5.468;2023-05-27T00:37:27;102918.31;;;10.82;68.15
73341;BME280;61578;52.002;5.468;2023-05-27T00:37:58;102921.06;;;10.79;68.60
73341;BME280;61578;52.002;5.468;2023-05-27T00:38:28;102922.88;;;10.79;68.49
73341;BME280;61578;52.002;5.468;2023-05-27T00:39:00;102917.56;;;10.79;68.81
73341;BME280;61578;52.002;5.468;2023-05-27T00:39:31;102914.94;;;10.77;68.37
73341;BME280;61578;52.002;5.468;2023-05-27T00:40:02;102928.22;;;10.77;68.74
73341;BME280;61578;52.002;5.468;2023-05-27T00:40:39;102916.00;;;10.72;68.61
73341;BME280;61578;52.002;5.468;2023-05-27T00:41:12;102915.03;;;10.74;68.72
73341;BME280;61578;52.002;5.468;2023-05-27T00:41:48;102914.16;;;10.74;68.65
73341;BME280;61578;52.002;5.468;2023-05-27T00:42:20;102905.56;;;10.65;68.40
73341;BME280;61578;52.002;5.468;2023-05-27T00:42:51;102914.25;;;10.70;68.82
73341;BME280;61578;52.002;5.468;2023-05-27T00:43:22;102916.94;;;10.69;68.36
73341;BME280;61578;52.002;5.468;2023-05-27T00:43:53;102915.25;;;10.68;69.23
73341;BME280;61578;52.002;5.468;2023-05-27T00:44:28;102918.81;;;10.67;68.56
73341;BME280;61578;52.002;5.468;2023-05-27T00:44:59;102906.63;;;10.60;68.89
73341;BME280;61578;52.002;5.468;2023-05-27T00:45:29;102916.28;;;10.62;68.89
73341;BME280;61578;52.002;5.468;2023-05-27T00:46:01;102913.59;;;10.64;69.10
73341;BME280;61578;52.002;5.468;2023-05-27T00:46:31;102918.94;;;10.62;69.26
73341;BME280;61578;52.002;5.468;2023-05-27T00:47:03;102920.69;;;10.63;69.27
73341;BME280;61578;52.002;5.468;2023-05-27T00:47:34;102917.31;;;10.58;69.29
73341;BME280;61578;52.002;5.468;2023-05-27T00:48:05;102925.16;;;10.61;69.16
73341;BME280;61578;52.002;5.468;2023-05-27T00:48:36;102902.41;;;10.53;69.05
73341;BME280;61578;52.002;5.468;2023-05-27T00:49:07;102920.78;;;10.60;69.05
73341;BME280;61578;52.002;5.468;2023-05-27T00:49:38;102904.22;;;10.52;69.57
73341;BME280;61578;52.002;5.468;2023-05-27T00:50:12;102906.81;;;10.54;69.75
73341;BME280;61578;52.002;5.468;2023-05-27T00:50:42;102919.03;;;10.59;69.78
73341;BME280;61578;52.002;5.468;2023-05-27T00:51:14;102919.97;;;10.58;69.71
73341;BME280;61578;52.002;5.468;2023-05-27T00:51:45;102914.78;;;10.54;69.33
73341;BME280;61578;52.002;5.468;2023-05-27T00:52:16;102913.84;;;10.56;69.48
73341;BME280;61578;52.002;5.468;2023-05-27T00:52:49;102920.03;;;10.57;69.64
73341;BME280;61578;52.002;5.468;2023-05-27T00:53:20;102910.34;;;10.54;69.32
73341;BME280;61578;52.002;5.468;2023-05-27T00:53:51;102918.34;;;10.53;69.15
73341;BME280;61578;52.002;5.468;2023-05-27T00:54:23;102906.06;;;10.49;70.01
73341;BME280;61578;52.002;5.468;2023-05-27T00:54:55;102914.88;;;10.51;69.38
73341;BME280;61578;52.002;5.468;2023-05-27T00:55:31;102910.44;;;10.51;69.49
73341;BME280;61578;52.002;5.468;2023-05-27T00:56:02;102912.19;;;10.52;69.53
73341;BME280;61578;52.002;5.468;2023-05-27T00:56:32;102909.56;;;10.51;69.78
73341;BME280;61578;52.002;5.468;2023-05-27T00:57:04;102903.41;;;10.49;69.80
73341;BME280;61578;52.002;5.468;2023-05-27T00:57:36;102903.56;;;10.44;70.09
73341;BME280;61578;52.002;5.468;2023-05-27T00:58:08;102900.94;;;10.44;69.69
73341;BME280;61578;52.002;5.468;2023-05-27T00:58:39;102905.31;;;10.45;69.74
73341;BME280;61578;52.002;5.468;2023-05-27T00:59:11;102907.97;;;10.45;69.60
73341;BME280;61578;52.002;5.468;2023-05-27T00:59:42;102900.97;;;10.43;69.44
73341;BME280;61578;52.002;5.468;2023-05-27T01:00:15;102900.06;;;10.44;69.51
73341;BME280;61578;52.002;5.468;2023-05-27T01:00:46;102908.03;;;10.44;69.58
73341;BME280;61578;52.002;5.468;2023-05-27T01:01:18;102903.63;;;10.43;70.10
73341;BME280;61578;52.002;5.468;2023-05-27T01:01:51;102899.25;;;10.40;69.63
73341;BME280;61578;52.002;5.468;2023-05-27T01:02:22;102901.84;;;10.43;70.21
73341;BME280;61578;52.002;5.468;2023-05-27T01:02:53;102904.50;;;10.43;69.60
73341;BME280;61578;52.002;5.468;2023-05-27T01:03:23;102901.84;;;10.43;69.79
73341;BME280;61578;52.002;5.468;2023-05-27T01:03:56;102900.00;;;10.45;70.15
73341;BME280;61578;52.002;5.468;2023-05-27T01:04:27;102905.31;;;10.45;70.31
73341;BME280;61578;52.002;5.468;2023-05-27T01:05:01;102903.66;;;10.41;69.76
73341;BME280;61578;52.002;5.468;2023-05-27T01:05:33;102902.78;;;10.41;70.28
73341;BME280;61578;52.002;5.468;2023-05-27T01:09:51;102903.00;;;10.35;70.36
73341;BME280;61578;52.002;5.468;2023-05-27T01:10:30;102904.81;;;10.32;70.68
73341;BME280;61578;52.002;5.468;2023-05-27T01:11:10;102897.69;;;10.35;70.67
73341;BME280;61578;52.002;5.468;2023-05-27T01:13:29;102888.22;;;10.26;70.26
73341;BME280;61578;52.002;5.468;2023-05-27T01:13:51;102886.50;;;10.23;70.18
73341;BME280;61578;52.002;5.468;2023-05-27T01:14:26;102897.81;;;10.30;70.40
73341;BME280;61578;52.002;5.468;2023-05-27T01:14:58;102898.69;;;10.30;70.39
73341;BME280;61578;52.002;5.468;2023-05-27T01:15:32;102885.50;;;10.27;70.18
73341;BME280;61578;52.002;5.468;2023-05-27T01:16:11;102901.28;;;10.32;70.44
73341;BME280;61578;52.002;5.468;2023-05-27T01:16:46;102895.09;;;10.31;70.55
73341;BME280;61578;52.002;5.468;2023-05-27T01:17:18;102904.03;;;10.29;70.62
73341;BME280;61578;52.002;5.468;2023-05-27T01:17:55;102890.75;;;10.29;70.59
73341;BME280;61578;52.002;5.468;2023-05-27T01:18:28;102882.16;;;10.21;70.50
73341;BME280;61578;52.002;5.468;2023-05-27T01:19:07;102890.81;;;10.27;71.02
73341;BME280;61578;52.002;5.468;2023-05-27T01:19:45;102885.72;;;10.20;70.73
73341;BME280;61578;52.002;5.468;2023-05-27T01:20:16;102897.91;;;10.27;70.11
73341;BME280;61578;52.002;5.468;2023-05-27T01:20:51;102897.97;;;10.25;70.05
73341;BME280;61578;52.002;5.468;2023-05-27T01:21:24;102898.00;;;10.24;70.32
73341;BME280;61578;52.002;5.468;2023-05-27T01:22:01;102895.34;;;10.24;71.05
73341;BME280;61578;52.002;5.468;2023-05-27T01:22:33;102903.34;;;10.22;70.66
73341;BME280;61578;52.002;5.468;2023-05-27T01:23:04;102892.94;;;10.15;70.87
73341;BME280;61578;52.002;5.468;2023-05-27T01:23:35;102881.44;;;10.14;70.26
73341;BME280;61578;52.002;5.468;2023-05-27T01:24:08;102889.22;;;10.22;70.99
73341;BME280;61578;52.002;5.468;2023-05-27T01:24:39;102902.44;;;10.23;71.42
73341;BME280;61578;52.002;5.468;2023-05-27T01:25:13;102903.34;;;10.22;71.10
73341;BME280;61578;52.002;5.468;2023-05-27T01:25:44;102894.50;;;10.22;71.12
73341;BME280;61578;52.002;5.468;2023-05-27T01:26:15;102890.28;;;10.15;70.84
73341;BME280;61578;52.002;5.468;2023-05-27T01:26:46;102898.97;;;10.21;70.72
73341;BME280;61578;52.002;5.468;2023-05-27T01:27:20;102892.84;;;10.18;70.79
73341;BME280;61578;52.002;5.468;2023-05-27T01:27:51;102896.34;;;10.20;70.99
73341;BME280;61578;52.002;5.468;2023-05-27T01:28:26;102885.00;;;10.13;71.26
73341;BME280;61578;52.002;5.468;2023-05-27T01:28:57;102893.72;;;10.18;71.51
73341;BME280;61578;52.002;5.468;2023-05-27T01:29:30;102886.59;;;10.20;71.23
73341;BME280;61578;52.002;5.468;2023-05-27T01:30:02;102897.16;;;10.22;70.96
73341;BME280;61578;52.002;5.468;2023-05-27T01:30:37;102892.84;;;10.18;71.09
73341;BME280;61578;52.002;5.468;2023-05-27T01:31:15;102893.72;;;10.18;71.50
73341;BME280;61578;52.002;5.468;2023-05-27T01:32:02;102891.06;;;10.18;71.40
73341;BME280;61578;52.002;5.468;2023-05-27T01:33:24;102889.41;;;10.14;70.81
73341;BME280;61578;52.002;5.468;2023-05-27T01:33:59;102889.31;;;10.17;71.30
73341;BME280;61578;52.002;5.468;2023-05-27T01:34:40;102891.06;;;10.18;71.50
73341;BME280;61578;52.002;5.468;2023-05-27T01:35:23;102904.34;;;10.18;71.45
73341;BME280;61578;52.002;5.468;2023-05-27T01:36:07;102899.03;;;10.18;70.85
73341;BME280;61578;52.002;5.468;2023-05-27T01:36:50;102896.41;;;10.17;71.36
73341;BME280;61578;52.002;5.468;2023-05-27T01:37:31;102892.84;;;10.18;71.63
73341;BME280;61578;52.002;5.468;2023-05-27T01:38:10;102906.03;;;10.21;71.19
73341;BME280;61578;52.002;5.468;2023-05-27T01:38:48;102906.97;;;10.20;70.98
73341;BME280;61578;52.002;5.468;2023-05-27T01:39:23;102888.56;;;10.12;71.03
73341;BME280;61578;52.002;5.468;2023-05-27T01:39:56;102906.13;;;10.18;71.81
73341;BME280;61578;52.002;5.468;2023-05-27T01:40:28;102902.59;;;10.17;71.36
73341;BME280;61578;52.002;5.468;2023-05-27T01:41:00;102898.16;;;10.18;71.60
73341;BME280;61578;52.002;5.468;2023-05-27T01:41:35;102903.47;;;10.18;71.46
73341;BME280;61578;52.002;5.468;2023-05-27T01:42:07;102899.91;;;10.19;71.74
73341;BME280;61578;52.002;5.468;2023-05-27T01:42:40;102903.50;;;10.16;71.69
73341;BME280;61578;52.002;5.468;2023-05-27T01:43:14;102907.91;;;10.17;71.63
73341;BME280;61578;52.002;5.468;2023-05-27T01:43:47;102896.53;;;10.12;71.24
73341;BME280;61578;52.002;5.468;2023-05-27T01:44:20;102903.59;;;10.13;71.58
73341;BME280;61578;52.002;5.468;2023-05-27T01:44:53;102901.88;;;10.11;71.80
73341;BME280;61578;52.002;5.468;2023-05-27T01:45:26;102902.84;;;10.08;71.43
73341;BME280;61578;52.002;5.468;2023-05-27T01:45:57;102903.72;;;10.09;71.14
73341;BME280;61578;52.002;5.468;2023-05-27T01:46:28;102890.50;;;10.07;71.55
73341;BME280;61578;52.002;5.468;2023-05-27T01:47:02;102905.44;;;10.10;71.13
73341;BME280;61578;52.002;5.468;2023-05-27T01:47:33;102908.16;;;10.08;71.19
73341;BME280;61578;52.002;5.468;2023-05-27T01:48:04;102907.28;;;10.08;71.08
73341;BME280;61578;52.002;5.468;2023-05-27T01:48:35;102894.16;;;10.03;72.07
73341;BME280;61578;52.002;5.468;2023-05-27T01:49:06;102909.09;;;10.07;71.65
73341;BME280;61578;52.002;5.468;2023-05-27T01:49:37;102895.16;;;9.99;71.80
73341;BME280;61578;52.002;5.468;2023-05-27T01:50:08;102904.69;;;10.06;72.16
73341;BME280;61578;52.002;5.468;2023-05-27T01:50:38;102907.34;;;10.06;71.97
73341;BME280;61578;52.002;5.468;2023-05-27T01:51:09;102909.03;;;10.09;72.16
73341;BME280;61578;52.002;5.468;2023-05-27T01:51:41;102901.25;;;10.03;72.35
73341;BME280;61578;52.002;5.468;2023-05-27T01:52:12;102909.09;;;10.07;71.95
73341;BME280;61578;52.002;5.468;2023-05-27T01:52:43;102906.38;;;10.09;72.51
73341;BME280;61578;52.002;5.468;2023-05-27T01:53:14;102901.06;;;10.09;72.43
73341;BME280;61578;52.002;5.468;2023-05-27T01:53:44;102901.16;;;10.06;72.30
73341;BME280;61578;52.002;5.468;2023-05-27T01:54:15;102902.03;;;10.06;71.69
73341;BME280;61578;52.002;5.468;2023-05-27T01:54:46;102901.13;;;10.07;72.08
73341;BME280;61578;52.002;5.468;2023-05-27T01:55:16;102893.22;;;10.06;72.48
73341;BME280;61578;52.002;5.468;2023-05-27T01:55:47;102904.63;;;10.08;72.13
73341;BME280;61578;52.002;5.468;2023-05-27T01:56:18;102899.44;;;10.05;71.78
73341;BME280;61578;52.002;5.468;2023-05-27T01:56:49;102895.03;;;10.04;72.12
73341;BME280;61578;52.002;5.468;2023-05-27T01:57:21;102905.66;;;10.04;72.48
73341;BME280;61578;52.002;5.468;2023-05-27T01:57:52;102901.25;;;10.03;72.25
73341;BME280;61578;52.002;5.468;2023-05-27T01:58:23;102905.72;;;10.01;72.66
73341;BME280;61578;52.002;5.468;2023-05-27T01:58:54;102904.25;;;9.90;72.22
73341;BME280;61578;52.002;5.468;2023-05-27T01:59:24;102904.22;;;9.92;72.25
73341;BME280;61578;52.002;5.468;2023-05-27T01:59:55;102904.97;;;9.97;72.71
73341;BME280;61578;52.002;5.468;2023-05-27T02:00:26;102904.97;;;9.97;73.08
73341;BME280;61578;52.002;5.468;2023-05-27T02:00:56;102900.44;;;9.99;72.31
73341;BME280;61578;52.002;5.468;2023-05-27T02:01:27;102904.84;;;10.00;72.46
73341;BME280;61578;52.002;5.468;2023-05-27T02:01:58;102902.25;;;9.98;72.00
73341;BME280;61578;52.002;5.468;2023-05-27T02:02:29;102897.91;;;9.96;72.43
73341;BME280;61578;52.002;5.468;2023-05-27T02:02:59;102903.22;;;9.96;72.63
73341;BME280;61578;52.002;5.468;2023-05-27T02:03:32;102898.81;;;9.95;72.95
73341;BME280;61578;52.002;5.468;2023-05-27T02:04:02;102900.66;;;9.93;72.27
73341;BME280;61578;52.002;5.468;2023-05-27T02:04:34;102904.16;;;9.93;72.20
73341;BME280;61578;52.002;5.468;2023-05-27T02:05:05;102906.00;;;9.91;72.34
73341;BME280;61578;52.002;5.468;2023-05-27T02:05:38;102895.38;;;9.91;72.44
73341;BME280;61578;52.002;5.468;2023-05-27T02:06:10;102898.91;;;9.92;72.65
73341;BME280;61578;52.002;5.468;2023-05-27T02:06:41;102894.53;;;9.89;72.91
73341;BME280;61578;52.002;5.468;2023-05-27T02:07:11;102899.00;;;9.87;72.63
73341;BME280;61578;52.002;5.468;2023-05-27T02:07:42;102902.50;;;9.89;72.40
73341;BME280;61578;52.002;5.468;2023-05-27T02:08:15;102899.84;;;9.89;73.01
73341;BME280;61578;52.002;5.468;2023-05-27T02:08:46;102897.13;;;9.92;72.46
73341;BME280;61578;52.002;5.468;2023-05-27T02:09:17;102904.16;;;9.93;72.59
73341;BME280;61578;52.002;5.468;2023-05-27T02:09:48;102902.44;;;9.92;72.85
73341;BME280;61578;52.002;5.468;2023-05-27T02:10:19;102901.50;;;9.93;72.33
73341;BME280;61578;52.002;5.468;2023-05-27T02:10:50;102906.84;;;9.92;72.77
73341;BME280;61578;52.002;5.468;2023-05-27T02:11:21;102900.69;;;9.91;72.51
73341;BME280;61578;52.002;5.468;2023-05-27T02:11:52;102903.28;;;9.93;72.06
73341;BME280;61578;52.002;5.468;2023-05-27T02:12:22;102901.56;;;9.92;72.67
73341;BME280;61578;52.002;5.468;2023-05-27T02:12:53;102909.50;;;9.92;72.50
73341;BME280;61578;52.002;5.468;2023-05-27T02:13:24;102909.47;;;9.93;72.66
73341;BME280;61578;52.002;5.468;2023-05-27T02:13:55;102898.00;;;9.93;73.02
73341;BME280;61578;52.002;5.468;2023-05-27T02:14:26;102902.38;;;9.94;72.67
73341;BME280;61578;52.002;5.468;2023-05-27T02:14:56;102913.91;;;9.93;72.38
73341;BME280;61578;52.002;5.468;2023-05-27T02:15:28;102917.44;;;9.93;72.61
73341;BME280;61578;52.002;5.468;2023-05-27T02:15:59;102912.13;;;9.93;72.78
73341;BME280;61578;52.002;5.468;2023-05-27T02:16:30;102900.00;;;9.85;72.73
73341;BME280;61578;52.002;5.468;2023-05-27T02:17:06;102913.06;;;9.91;72.82
73341;BME280;61578;52.002;5.468;2023-05-27T02:17:38;102904.25;;;9.90;73.11
73341;BME280;61578;52.002;5.468;2023-05-27T02:18:09;102912.25;;;9.89;72.85
73341;BME280;61578;52.002;5.468;2023-05-27T02:18:40;102908.69;;;9.90;72.84
73341;BME280;61578;52.002;5.468;2023-05-27T02:19:11;102910.50;;;9.88;72.98
73341;BME280;61578;52.002;5.468;2023-05-27T02:19:41;102907.91;;;9.86;72.42
73341;BME280;61578;52.002;5.468;2023-05-27T02:20:12;102908.72;;;9.88;73.08
73341;BME280;61578;52.002;5.468;2023-05-27T02:20:45;102911.38;;;9.88;72.97
73341;BME280;61578;52.002;5.468;2023-05-27T02:21:16;102915.00;;;9.86;72.49
73341;BME280;61578;52.002;5.468;2023-05-27T02:21:50;102916.75;;;9.87;72.88
73341;BME280;61578;52.002;5.468;2023-05-27T02:22:21;102910.59;;;9.85;72.91
73341;BME280;61578;52.002;5.468;2023-05-27T02:22:52;102914.16;;;9.84;73.45
73341;BME280;61578;52.002;5.468;2023-05-27T02:23:23;102909.78;;;9.83;73.41
73341;BME280;61578;52.002;5.468;2023-05-27T02:23:54;102914.16;;;9.84;72.84
73341;BME280;61578;52.002;5.468;2023-05-27T02:24:24;102909.81;;;9.81;73.18
73341;BME280;61578;52.002;5.468;2023-05-27T02:24:58;102910.75;;;9.79;72.76
73341;BME280;61578;52.002;5.468;2023-05-27T02:25:29;102911.63;;;9.79;72.89
73341;BME280;61578;52.002;5.468;2023-05-27T02:25:59;102913.53;;;9.76;73.41
73341;BME280;61578;52.002;5.468;2023-05-27T02:26:31;102913.44;;;9.77;73.13
73341;BME280;61578;52.002;5.468;2023-05-27T02:27:02;102912.72;;;9.72;73.20
73341;BME280;61578;52.002;5.468;2023-05-27T02:27:32;102904.06;;;9.66;73.27
73341;BME280;61578;52.002;5.468;2023-05-27T02:28:03;102919.00;;;9.68;73.67
73341;BME280;61578;52.002;5.468;2023-05-27T02:28:34;102912.75;;;9.71;73.64
73341;BME280;61578;52.002;5.468;2023-05-27T02:29:04;102916.25;;;9.73;74.19
73341;BME280;61578;52.002;5.468;2023-05-27T02:29:35;102913.66;;;9.70;73.87
73341;BME280;61578;52.002;5.468;2023-05-27T02:30:06;102903.28;;;9.62;73.40
73341;BME280;61578;52.002;5.468;2023-05-27T02:30:37;102912.91;;;9.66;73.69
73341;BME280;61578;52.002;5.468;2023-05-27T02:31:11;102920.91;;;9.65;73.99
73341;BME280;61578;52.002;5.468;2023-05-27T02:31:42;102918.25;;;9.65;73.50
73341;BME280;61578;52.002;5.468;2023-05-27T02:32:12;102915.59;;;9.65;73.91
73341;BME280;61578;52.002;5.468;2023-05-27T02:32:46;102917.38;;;9.64;74.03
73341;BME280;61578;52.002;5.468;2023-05-27T02:33:17;102919.16;;;9.64;73.89
73341;BME280;61578;52.002;5.468;2023-05-27T02:33:47;102908.63;;;9.60;73.65
73341;BME280;61578;52.002;5.468;2023-05-27T02:34:21;102910.41;;;9.60;73.95
73341;BME280;61578;52.002;5.468;2023-05-27T02:34:52;102916.72;;;9.56;74.04
73341;BME280;61578;52.002;5.468;2023-05-27T02:35:22;102900.03;;;9.51;73.95
73341;BME280;61578;52.002;5.468;2023-05-27T02:35:53;102917.50;;;9.58;73.90
73341;BME280;61578;52.002;5.468;2023-05-27T02:36:24;102914.94;;;9.56;74.31
73341;BME280;61578;52.002;5.468;2023-05-27T02:36:55;102908.66;;;9.59;74.45
73341;BME280;61578;52.002;5.468;2023-05-27T02:37:26;102900.72;;;9.57;73.91
73341;BME280;61578;52.002;5.468;2023-05-27T02:37:58;102907.06;;;9.53;74.17
73341;BME280;61578;52.002;5.468;2023-05-27T02:38:28;102910.56;;;9.54;74.41
73341;BME280;61578;52.002;5.468;2023-05-27T02:38:59;102910.53;;;9.55;74.10
73341;BME280;61578;52.002;5.468;2023-05-27T02:39:30;102908.75;;;9.56;74.04
73341;BME280;61578;52.002;5.468;2023-05-27T02:40:01;102907.91;;;9.54;74.00
73341;BME280;61578;52.002;5.468;2023-05-27T02:40:31;102904.53;;;9.47;73.93
73341;BME280;61578;52.002;5.468;2023-05-27T02:41:02;102907.38;;;9.41;74.72
73341;BME280;61578;52.002;5.468;2023-05-27T02:41:33;102881.91;;;9.36;74.39
73341;BME280;61578;52.002;5.468;2023-05-27T02:42:04;102903.66;;;9.47;74.18
73341;BME280;61578;52.002;5.468;2023-05-27T02:42:35;102898.47;;;9.44;74.09
73341;BME280;61578;52.002;5.468;2023-05-27T02:43:06;102904.44;;;9.52;73.89
73341;BME280;61578;52.002;5.468;2023-05-27T02:43:41;102895.66;;;9.50;73.88
73341;BME280;61578;52.002;5.468;2023-05-27T02:44:11;102903.59;;;9.50;74.09
73341;BME280;61578;52.002;5.468;2023-05-27T02:44:43;102907.25;;;9.46;74.65
73341;BME280;61578;52.002;5.468;2023-05-27T02:45:13;102899.34;;;9.44;74.15
73341;BME280;61578;52.002;5.468;2023-05-27T02:45:44;102901.13;;;9.44;74.30
73341;BME280;61578;52.002;5.468;2023-05-27T02:46:15;102896.72;;;9.43;74.39
73341;BME280;61578;52.002;5.468;2023-05-27T02:46:48;102896.72;;;9.43;74.60
73341;BME280;61578;52.002;5.468;2023-05-27T02:47:19;102893.16;;;9.44;74.73
73341;BME280;61578;52.002;5.468;2023-05-27T02:47:50;102895.81;;;9.44;74.91
73341;BME280;61578;52.002;5.468;2023-05-27T02:48:22;102898.38;;;9.47;75.18
73341;BME280;61578;52.002;5.468;2023-05-27T02:48:53;102896.66;;;9.46;74.55
73341;BME280;61578;52.002;5.468;2023-05-27T02:49:24;102908.03;;;9.49;74.26
73341;BME280;61578;52.002;5.468;2023-05-27T02:49:55;102905.38;;;9.49;74.84
73341;BME280;61578;52.002;5.468;2023-05-27T02:50:25;102907.09;;;9.52;74.69
73341;BME280;61578;52.002;5.468;2023-05-27T02:50:56;102898.28;;;9.50;74.54
73341;BME280;61578;52.002;5.468;2023-05-27T02:51:28;102896.69;;;9.44;74.38
73341;BME280;61578;52.002;5.468;2023-05-27T02:51:59;102895.69;;;9.48;74.82
73341;BME280;61578;52.002;5.468;2023-05-27T02:52:30;102888.84;;;9.40;74.04
73341;BME280;61578;52.002;5.468;2023-05-27T02:53:03;102894.06;;;9.43;74.65
73341;BME280;61578;52.002;5.468;2023-05-27T02:53:34;102891.56;;;9.37;74.56
73341;BME280;61578;52.002;5.468;2023-05-27T02:54:04;102890.22;;;9.20;74.91